createdAt,value
2022-09-01T00:00:01.393Z,98250.28
2022-09-01T00:02:29.582Z,98244.63
2022-09-01T00:04:58.880Z,98246.16
2022-09-01T00:07:27.494Z,98240.44
2022-09-01T00:09:54.163Z,98243.22
2022-09-01T00:12:22.815Z,98241.41
2022-09-01T00:14:49.535Z,98238.19
2022-09-01T00:20:35.376Z,98246.72
2022-09-01T00:23:02.135Z,98234.44
2022-09-01T00:25:28.993Z,98239.94
2022-09-01T00:27:59.431Z,98236.78
2022-09-01T00:30:26.406Z,98236.59
2022-09-01T00:32:53.094Z,98239.19
2022-09-01T00:35:20.223Z,98246.25
2022-09-01T00:37:46.881Z,98237.06
2022-09-01T00:40:16.108Z,98236.03
2022-09-01T00:42:44.671Z,98233.13
2022-09-01T00:45:12.032Z,98231.59
2022-09-01T00:47:38.940Z,98225.75
2022-09-01T00:50:08.948Z,98231.63
2022-09-01T00:52:41.170Z,98233.66
2022-09-01T00:55:13.098Z,98236.25
2022-09-01T00:57:40.846Z,98228.75
2022-09-01T01:00:14.947Z,98236.75
2022-09-01T01:02:42.878Z,98230.47
2022-09-01T01:05:14.291Z,98233.28
2022-09-01T01:07:47.439Z,98233.41
2022-09-01T01:10:17.268Z,98235.66
2022-09-01T01:12:44.986Z,98227.91
2022-09-01T01:15:12.992Z,98238.81
2022-09-01T01:17:40.463Z,98236.47
2022-09-01T01:20:28.179Z,98236.84
2022-09-01T01:23:02.375Z,98238.47
2022-09-01T01:25:53.486Z,98245.28
2022-09-01T01:28:22.388Z,98241.75
2022-09-01T01:30:52.722Z,98239.06
2022-09-01T01:33:25.851Z,98239.66
2022-09-01T01:35:55.538Z,98242.13
2022-09-01T01:38:23.178Z,98237.75
2022-09-01T01:40:53.958Z,98238.84
2022-09-01T01:43:22.028Z,98228.50
2022-09-01T01:45:52.210Z,98233.91
2022-09-01T01:48:24.661Z,98231.44
2022-09-01T01:50:56.036Z,98218.41
2022-09-01T01:53:22.889Z,98224.84
2022-09-01T01:55:49.788Z,98224.84
2022-09-01T01:58:22.093Z,98233.41
2022-09-01T02:00:50.719Z,98223.91
2022-09-01T02:03:20.394Z,98233.53
2022-09-01T02:05:49.493Z,98225.88
2022-09-01T02:08:21.198Z,98225.75
2022-09-01T02:10:50.958Z,98224.59
2022-09-01T02:13:21.114Z,98214.84
2022-09-01T02:15:53.998Z,98224.81
2022-09-01T02:21:31.198Z,98225.28
2022-09-01T02:24:01.259Z,98218.69
2022-09-01T02:26:33.965Z,98216.25
2022-09-01T02:29:04.893Z,98213.41
2022-09-01T02:31:39.982Z,98220.06
2022-09-01T02:34:14.107Z,98222.97
2022-09-01T02:36:49.652Z,98226.97
2022-09-01T02:39:25.958Z,98220.63
2022-09-01T02:41:53.874Z,98225.41
2022-09-01T02:44:22.280Z,98224.47
2022-09-01T02:46:50.511Z,98227.16
2022-09-01T02:49:24.824Z,98220.81
2022-09-01T02:52:01.658Z,98217.50
2022-09-01T02:54:31.013Z,98219.84
2022-09-01T02:56:57.682Z,98226.66
2022-09-01T02:59:27.555Z,98221.25
2022-09-01T03:01:54.679Z,98221.50
2022-09-01T03:04:23.053Z,98213.75
2022-09-01T03:06:52.710Z,98206.97
2022-09-01T03:09:19.542Z,98210.25
2022-09-01T03:11:50.712Z,98204.25
2022-09-01T03:14:17.718Z,98203.19
2022-09-01T03:16:44.397Z,98216.22
2022-09-01T03:19:12.172Z,98207.53
2022-09-01T03:21:41.191Z,98208.84
2022-09-01T03:24:09.975Z,98204.00
2022-09-01T03:26:37.112Z,98211.47
2022-09-01T03:29:04.263Z,98213.69
2022-09-01T03:31:31.605Z,98203.00
2022-09-01T03:33:59.741Z,98199.31
2022-09-01T03:36:28.547Z,98203.75
2022-09-01T03:38:55.957Z,98196.56
2022-09-01T03:41:26.324Z,98205.13
2022-09-01T03:43:58.140Z,98205.78
2022-09-01T03:46:27.034Z,98203.53
2022-09-01T03:48:58.803Z,98204.00
2022-09-01T03:51:27.195Z,98206.31
2022-09-01T03:53:55.244Z,98204.28
2022-09-01T03:56:27.551Z,98206.03
2022-09-01T03:58:56.753Z,98196.94
2022-09-01T04:01:24.209Z,98201.75
2022-09-01T04:03:53.267Z,98209.22
2022-09-01T04:06:20.727Z,98205.34
2022-09-01T04:08:47.383Z,98209.47
2022-09-01T04:11:18.844Z,98205.94
2022-09-01T04:13:47.412Z,98214.84
2022-09-01T04:16:39.280Z,98202.22
2022-09-01T04:22:39.948Z,98213.81
2022-09-01T04:25:09.288Z,98209.47
2022-09-01T04:27:40.516Z,98217.31
2022-09-01T04:30:10.895Z,98213.19
2022-09-01T04:32:38.332Z,98216.97
2022-09-01T04:35:07.153Z,98215.75
2022-09-01T04:37:36.215Z,98217.81
2022-09-01T04:40:07.102Z,98222.38
2022-09-01T04:42:35.138Z,98219.56
2022-09-01T04:45:10.779Z,98217.69
2022-09-01T04:47:44.502Z,98226.59
2022-09-01T04:50:16.502Z,98224.13
2022-09-01T04:52:45.183Z,98230.72
2022-09-01T04:55:18.741Z,98216.78
2022-09-01T04:57:47.968Z,98217.38
2022-09-01T05:00:23.227Z,63001.84
2022-09-01T05:03:06.573Z,63001.84
2022-09-01T05:05:46.919Z,63001.84
2022-09-01T05:08:23.879Z,63001.84
2022-09-01T05:10:53.836Z,63001.84
2022-09-01T05:13:23.700Z,63001.84
2022-09-01T05:16:03.407Z,63001.84
2022-09-01T05:18:36.582Z,63001.84
2022-09-01T05:21:13.002Z,63001.84
2022-09-01T05:23:51.648Z,63001.84
2022-09-01T05:26:32.431Z,63001.84
2022-09-01T05:29:01.791Z,63001.84
2022-09-01T05:31:35.197Z,63001.84
2022-09-01T05:34:06.647Z,63001.84
2022-09-01T05:36:50.887Z,63001.84
2022-09-01T05:39:38.683Z,63001.84
2022-09-01T05:42:13.005Z,63001.84
2022-09-01T05:44:44.550Z,63001.84
2022-09-01T05:47:21.011Z,63001.84
2022-09-01T05:49:55.556Z,63001.84
2022-09-01T05:52:32.815Z,63001.84
2022-09-01T05:55:31.173Z,63001.84
2022-09-01T05:58:14.169Z,63001.84
2022-09-01T06:00:51.269Z,63001.84
2022-09-01T06:03:22.904Z,63001.84
2022-09-01T06:05:58.466Z,63001.84
2022-09-01T06:08:34.037Z,63001.84
2022-09-01T06:11:04.449Z,63001.84
2022-09-01T06:13:34.618Z,63001.84
2022-09-01T06:16:10.629Z,63001.84
2022-09-01T06:18:54.446Z,63001.84
2022-09-01T06:23:38.926Z,98233.28
2022-09-01T06:26:17.690Z,98233.66
2022-09-01T06:28:49.617Z,98233.75
2022-09-01T06:31:24.186Z,98243.16
2022-09-01T06:37:04.163Z,98238.22
2022-09-01T06:39:44.251Z,98234.81
2022-09-01T06:42:23.807Z,98246.59
2022-09-01T06:45:10.927Z,98247.38
2022-09-01T06:47:37.844Z,98246.16
2022-09-01T06:53:34.568Z,98253.66
2022-09-01T06:56:04.810Z,98253.78
2022-09-01T06:58:33.537Z,98254.56
2022-09-01T07:01:00.296Z,98252.38
2022-09-01T07:03:27.271Z,98261.56
2022-09-01T07:06:02.339Z,98266.09
2022-09-01T07:08:30.051Z,98262.00
2022-09-01T07:16:41.858Z,98273.56
2022-09-01T07:19:18.832Z,98277.41
2022-09-01T07:22:06.643Z,98277.22
2022-09-01T07:24:32.094Z,98273.56
2022-09-01T07:29:45.246Z,98273.16
2022-09-01T07:34:58.516Z,98273.44
2022-09-01T07:42:31.580Z,98268.16
2022-09-01T07:43:17.907Z,98286.13
2022-09-01T07:45:48.059Z,98286.00
2022-09-01T07:54:02.196Z,98291.94
2022-09-01T07:56:30.421Z,98295.84
2022-09-01T07:58:58.582Z,98290.13
2022-09-01T08:01:27.334Z,98305.75
2022-09-01T08:03:57.660Z,98284.50
2022-09-01T08:06:27.242Z,98283.94
2022-09-01T08:08:56.820Z,98282.66
2022-09-01T08:11:58.130Z,98291.47
2022-09-01T08:14:13.524Z,98297.75
2022-09-01T08:16:51.609Z,98298.03
2022-09-01T08:19:20.294Z,98288.03
2022-09-01T08:24:31.125Z,98296.97
2022-09-01T08:26:57.762Z,98293.91
2022-09-01T08:29:24.466Z,98289.50
2022-09-01T08:31:51.057Z,98293.56
2022-09-01T08:34:17.694Z,98287.53
2022-09-01T08:36:45.152Z,98285.63
2022-09-01T08:39:11.970Z,98287.91
2022-09-01T08:41:46.834Z,98295.41
2022-09-01T08:44:32.731Z,98290.00
2022-09-01T08:47:07.178Z,98283.84
2022-09-01T08:49:44.359Z,98280.59
2022-09-01T08:52:40.180Z,98277.16
2022-09-01T08:55:22.192Z,98283.75
2022-09-01T08:57:54.775Z,98285.31
2022-09-01T09:00:28.381Z,98285.38
2022-09-01T09:03:14.198Z,98289.81
2022-09-01T09:06:02.519Z,98281.84
2022-09-01T09:08:54.488Z,98288.81
2022-09-01T09:11:42.757Z,98287.22
2022-09-01T09:14:45.106Z,98285.63
2022-09-01T09:17:16.010Z,98289.09
2022-09-01T09:19:44.790Z,98287.41
2022-09-01T09:22:18.176Z,98273.56
2022-09-01T09:25:06.868Z,98285.59
2022-09-01T09:27:47.651Z,98277.94
2022-09-01T09:30:23.985Z,98277.06
2022-09-01T09:35:45.000Z,98278.69
2022-09-01T09:38:28.707Z,98273.63
2022-09-01T09:41:20.913Z,98269.63
2022-09-01T09:44:06.028Z,98278.47
2022-09-01T09:46:32.701Z,98272.56
2022-09-01T09:49:35.909Z,98274.88
2022-09-01T09:52:10.116Z,98278.06
2022-09-01T09:54:39.399Z,98277.13
2022-09-01T09:57:13.493Z,98276.88
2022-09-01T09:59:57.725Z,98266.56
2022-09-01T10:02:34.973Z,98266.00
2022-09-01T10:05:26.457Z,98265.91
2022-09-01T10:07:54.906Z,98264.00
2022-09-01T10:10:39.770Z,98269.47
2022-09-01T10:13:18.157Z,98261.91
2022-09-01T10:15:51.282Z,98272.59
2022-09-01T10:18:30.187Z,98262.31
2022-09-01T10:21:00.873Z,98264.06
2022-09-01T10:25:36.965Z,98263.13
2022-09-01T10:28:13.183Z,98263.56
2022-09-01T10:30:44.187Z,98258.63
2022-09-01T10:33:20.086Z,98266.75
2022-09-01T10:35:50.884Z,98263.84
2022-09-01T10:38:21.246Z,98261.69
2022-09-01T10:41:15.964Z,98261.19
2022-09-01T10:43:48.355Z,98268.19
2022-09-01T10:46:39.040Z,98265.44
2022-09-01T10:49:46.469Z,98259.53
2022-09-01T10:52:43.226Z,98253.78
2022-09-01T10:55:24.871Z,98248.03
2022-09-01T10:59:29.771Z,98256.22
2022-09-01T11:01:11.181Z,98267.28
2022-09-01T11:04:01.646Z,98268.06
2022-09-01T11:10:11.131Z,98259.69
2022-09-01T11:12:43.268Z,98259.53
2022-09-01T11:15:16.990Z,98261.22
2022-09-01T11:17:52.992Z,98252.44
2022-09-01T11:20:50.859Z,98252.66
2022-09-01T11:23:31.185Z,98265.22
2022-09-01T11:26:19.279Z,98251.66
2022-09-01T11:28:47.441Z,98254.03
2022-09-01T11:31:43.059Z,98256.22
2022-09-01T11:34:14.422Z,98249.16
2022-09-01T11:36:48.188Z,98253.78
2022-09-01T11:39:19.288Z,98242.81
2022-09-01T11:42:09.024Z,98247.84
2022-09-01T11:44:48.341Z,98243.00
2022-09-01T11:47:29.804Z,98253.34
2022-09-01T11:50:25.489Z,98243.97
2022-09-01T11:53:32.012Z,98259.34
2022-09-01T11:56:23.285Z,98238.94
2022-09-01T11:58:49.861Z,98247.22
2022-09-01T12:01:33.180Z,98242.91
2022-09-01T12:04:22.895Z,98234.13
2022-09-01T12:07:05.024Z,98231.66
2022-09-01T12:09:42.927Z,98228.00
2022-09-01T12:12:37.653Z,98217.47
2022-09-01T12:15:24.157Z,98222.25
2022-09-01T12:17:51.476Z,98222.31
2022-09-01T12:20:29.833Z,98220.75
2022-09-01T12:22:58.691Z,98221.03
2022-09-01T12:26:41.946Z,98222.28
2022-09-01T12:29:14.071Z,98209.69
2022-09-01T12:31:46.408Z,98209.84
2022-09-01T12:34:34.401Z,98216.00
2022-09-01T12:37:14.616Z,98222.56
2022-09-01T12:39:50.407Z,98221.03
2022-09-01T12:42:20.505Z,98223.47
2022-09-01T12:45:02.558Z,98215.56
2022-09-01T12:47:48.053Z,98213.00
2022-09-01T12:50:16.423Z,98206.06
2022-09-01T12:52:47.827Z,98197.31
2022-09-01T12:58:09.217Z,98201.66
2022-09-01T13:01:01.918Z,98192.88
2022-09-01T13:03:30.464Z,98190.69
2022-09-01T13:06:02.992Z,98194.50
2022-09-01T13:08:33.441Z,98187.53
2022-09-01T13:11:14.407Z,98198.97
2022-09-01T13:13:42.476Z,98195.34
2022-09-01T13:16:16.649Z,98202.53
2022-09-01T13:24:08.677Z,98209.03
2022-09-01T13:26:35.547Z,98214.78
2022-09-01T13:29:02.276Z,98214.78
2022-09-01T13:31:30.619Z,98210.16
2022-09-01T13:34:22.377Z,98212.31
2022-09-01T13:36:51.185Z,98219.44
2022-09-01T13:39:20.233Z,98220.84
2022-09-01T13:41:47.431Z,98224.72
2022-09-01T13:44:14.707Z,98220.41
2022-09-01T13:50:05.377Z,98221.91
2022-09-01T13:52:15.818Z,98225.16
2022-09-01T13:54:44.450Z,98222.75
2022-09-01T13:57:11.861Z,98227.91
2022-09-01T13:59:39.171Z,98222.44
2022-09-01T14:02:06.446Z,98221.09
2022-09-01T14:04:35.855Z,98229.03
2022-09-01T14:07:03.068Z,98233.13
2022-09-01T14:09:29.766Z,98231.50
2022-09-01T14:11:57.219Z,98231.25
2022-09-01T14:14:24.240Z,98233.69
2022-09-01T14:16:51.306Z,98230.75
2022-09-01T14:19:18.101Z,98241.75
2022-09-01T14:21:45.740Z,98234.94
2022-09-01T14:27:41.302Z,98238.84
2022-09-01T14:30:10.571Z,98224.09
2022-09-01T14:32:37.755Z,98225.19
2022-09-01T14:35:08.639Z,98220.28
2022-09-01T14:37:38.690Z,98224.09
2022-09-01T14:40:07.686Z,98229.25
2022-09-01T14:42:35.823Z,98221.59
2022-09-01T14:45:05.202Z,98217.78
2022-09-01T14:47:36.829Z,98223.50
2022-09-01T14:52:37.618Z,98215.34
2022-09-01T14:55:05.130Z,98222.69
2022-09-01T14:57:37.630Z,98221.59
2022-09-01T15:00:13.154Z,98218.88
2022-09-01T15:02:45.247Z,98222.94
2022-09-01T15:05:13.583Z,98213.63
2022-09-01T15:07:44.465Z,98219.94
2022-09-01T15:10:15.711Z,98219.38
2022-09-01T15:12:43.385Z,98216.91
2022-09-01T15:15:11.168Z,98215.25
2022-09-01T15:17:46.433Z,98211.44
2022-09-01T15:20:32.778Z,98211.97
2022-09-01T15:23:00.281Z,98215.25
2022-09-01T15:25:27.157Z,98199.69
2022-09-01T15:27:54.234Z,98208.19
2022-09-01T15:30:28.147Z,98210.09
2022-09-01T15:32:55.224Z,98204.66
2022-09-01T15:35:28.471Z,98211.75
2022-09-01T15:37:58.470Z,98210.97
2022-09-01T15:40:29.841Z,98205.50
2022-09-01T15:43:00.475Z,98211.53
2022-09-01T15:45:29.482Z,98213.44
2022-09-01T15:47:59.054Z,98215.06
2022-09-01T15:50:27.509Z,98210.44
2022-09-01T15:53:03.926Z,98218.59
2022-09-01T15:55:43.585Z,98214.69
2022-09-01T15:58:13.319Z,98222.56
2022-09-01T16:00:41.191Z,98220.34
2022-09-01T16:03:10.177Z,98217.28
2022-09-01T16:05:39.012Z,98212.88
2022-09-01T16:08:10.078Z,98211.75
2022-09-01T16:10:40.195Z,98213.13
2022-09-01T16:13:13.971Z,98223.19
2022-09-01T16:16:02.939Z,98214.19
2022-09-01T16:18:55.954Z,98221.81
2022-09-01T16:21:31.061Z,98217.19
2022-09-01T16:24:08.030Z,98212.53
2022-09-01T16:28:38.059Z,98221.78
2022-09-01T16:31:12.011Z,98229.13
2022-09-01T16:33:39.456Z,98226.41
2022-09-01T16:36:19.212Z,98228.56
2022-09-01T16:38:59.648Z,98223.91
2022-09-01T16:41:50.234Z,98222.53
2022-09-01T16:44:26.042Z,98230.16
2022-09-01T16:46:58.933Z,98231.78
2022-09-01T16:49:38.759Z,98234.16
2022-09-01T16:52:31.529Z,98225.34
2022-09-01T16:55:31.110Z,98227.47
2022-09-01T16:58:08.217Z,98233.16
2022-09-01T17:00:52.372Z,98236.38
2022-09-01T17:03:43.203Z,98236.00
2022-09-01T17:06:39.468Z,98243.78
2022-09-01T17:09:35.749Z,98246.91
2022-09-01T17:12:02.676Z,98245.16
2022-09-01T17:14:43.032Z,98248.00
2022-09-01T17:17:14.311Z,98252.19
2022-09-01T17:19:41.414Z,98246.31
2022-09-01T17:22:11.814Z,98245.72
2022-09-01T17:24:42.861Z,98251.81
2022-09-01T17:27:21.544Z,98254.88
2022-09-01T17:29:53.732Z,98260.47
2022-09-01T17:32:48.107Z,98259.50
2022-09-01T17:35:27.604Z,98266.41
2022-09-01T17:38:18.710Z,98263.00
2022-09-01T17:41:23.297Z,98270.50
2022-09-01T17:44:07.174Z,98274.59
2022-09-01T17:46:41.997Z,98269.63
2022-09-01T17:49:38.491Z,98274.50
2022-09-01T17:52:27.526Z,98277.78
2022-09-01T17:55:19.029Z,98281.13
2022-09-01T17:58:00.744Z,98284.34
2022-09-01T18:00:52.627Z,98279.66
2022-09-01T18:03:37.559Z,98281.28
2022-09-01T18:06:13.877Z,98289.91
2022-09-01T18:08:45.861Z,98296.88
2022-09-01T18:11:21.693Z,98293.50
2022-09-01T18:13:58.706Z,98293.16
2022-09-01T18:16:34.939Z,98292.81
2022-09-01T18:19:21.221Z,98297.06
2022-09-01T18:21:57.870Z,98296.97
2022-09-01T18:24:47.639Z,98307.47
2022-09-01T18:29:42.452Z,98309.28
2022-09-01T18:32:42.512Z,98310.72
2022-09-01T18:35:18.486Z,98301.81
2022-09-01T18:38:37.963Z,98303.59
2022-09-01T18:41:34.305Z,98313.09
2022-09-01T18:44:18.876Z,98307.47
2022-09-01T18:47:00.033Z,98309.09
2022-09-01T18:49:42.351Z,98306.53
2022-09-01T18:52:15.318Z,98308.53
2022-09-01T18:55:04.022Z,98315.34
2022-09-01T18:57:39.286Z,98300.19
2022-09-01T19:00:17.800Z,98304.63
2022-09-01T19:03:11.670Z,98305.09
2022-09-01T19:05:46.583Z,98314.97
2022-09-01T19:08:34.180Z,98320.03
2022-09-01T19:11:31.533Z,98318.72
2022-09-01T19:14:32.963Z,98314.22
2022-09-01T19:17:26.894Z,98327.75
2022-09-01T19:20:16.136Z,98330.53
2022-09-01T19:22:59.817Z,98323.00
2022-09-01T19:25:41.253Z,98328.41
2022-09-01T19:28:39.039Z,98330.16
2022-09-01T19:31:37.350Z,98324.63
2022-09-01T19:34:13.530Z,98330.72
2022-09-01T19:36:47.434Z,98334.38
2022-09-01T19:39:19.039Z,98337.28
2022-09-01T19:41:55.060Z,98339.97
2022-09-01T19:44:55.227Z,98334.47
2022-09-01T19:47:50.141Z,98344.66
2022-09-01T19:50:30.061Z,98351.13
2022-09-01T19:53:05.479Z,98353.81
2022-09-01T19:55:50.406Z,98343.59
2022-09-01T19:58:23.915Z,98353.38
2022-09-01T20:00:57.197Z,98348.19
2022-09-01T20:03:36.917Z,98344.91
2022-09-01T20:09:05.823Z,98348.19
2022-09-01T20:11:53.902Z,98350.88
2022-09-01T20:14:29.700Z,98352.31
2022-09-01T20:17:03.372Z,98360.06
2022-09-01T20:19:45.937Z,98351.22
2022-09-01T20:22:47.250Z,98350.44
2022-09-01T20:25:20.762Z,98355.03
2022-09-01T20:30:58.536Z,98356.53
2022-09-01T20:33:53.717Z,98352.78
2022-09-01T20:36:31.416Z,98357.81
2022-09-01T20:39:24.286Z,98363.41
2022-09-01T20:42:00.289Z,98369.50
2022-09-01T20:44:36.442Z,98373.47
2022-09-01T20:47:05.591Z,98363.75
2022-09-01T20:49:36.235Z,98368.97
2022-09-01T20:52:10.065Z,98372.13
2022-09-01T20:54:50.333Z,98380.22
2022-09-01T20:57:37.847Z,98369.06
2022-09-01T21:00:09.592Z,98371.16
2022-09-01T21:02:51.119Z,98371.97
2022-09-01T21:05:41.194Z,98379.47
2022-09-01T21:08:25.719Z,98370.56
2022-09-01T21:11:12.081Z,98377.69
2022-09-01T21:13:55.112Z,98374.16
2022-09-01T21:16:43.095Z,98370.88
2022-09-01T21:19:51.861Z,98373.56
2022-09-01T21:22:22.159Z,98374.44
2022-09-01T21:24:52.077Z,98382.16
2022-09-01T21:27:37.211Z,98375.59
2022-09-01T21:30:14.161Z,98378.88
2022-09-01T21:32:43.974Z,98374.97
2022-09-01T21:35:17.903Z,98369.81
2022-09-01T21:37:44.793Z,98380.59
2022-09-01T21:40:18.355Z,98371.31
2022-09-01T21:43:08.438Z,98373.75
2022-09-01T21:45:38.228Z,98374.81
2022-09-01T21:48:05.660Z,98386.22
2022-09-01T21:50:32.722Z,98388.13
2022-09-01T21:53:00.138Z,98377.88
2022-09-01T21:55:27.691Z,98385.38
2022-09-01T21:57:55.642Z,98382.50
2022-09-01T22:00:29.305Z,98376.34
2022-09-01T22:02:58.238Z,98372.50
2022-09-01T22:05:30.953Z,98375.50
2022-09-01T22:07:59.146Z,98367.34
2022-09-01T22:10:31.421Z,98369.44
2022-09-01T22:13:02.957Z,98375.22
2022-09-01T22:15:34.613Z,98364.91
2022-09-01T22:18:10.332Z,98377.91
2022-09-01T22:20:37.142Z,98366.44
2022-09-01T22:23:05.635Z,98371.19
2022-09-01T22:25:33.603Z,98369.03
2022-09-01T22:31:47.098Z,98367.94
2022-09-01T22:34:14.217Z,98363.91
2022-09-01T22:36:47.052Z,98365.06
2022-09-01T22:39:15.878Z,98368.63
2022-09-01T22:41:42.863Z,98373.06
2022-09-01T22:44:10.616Z,98371.72
2022-09-01T22:46:38.912Z,98361.88
2022-09-01T22:49:06.933Z,98365.19
2022-09-01T22:51:34.543Z,98368.34
2022-09-01T22:54:01.426Z,98365.69
2022-09-01T22:56:32.323Z,98372.94
2022-09-01T22:59:02.040Z,98346.69
2022-09-01T23:01:31.846Z,98358.44
2022-09-01T23:04:02.253Z,98354.34
2022-09-01T23:06:30.565Z,98344.00
2022-09-01T23:08:59.038Z,98351.06
2022-09-01T23:11:26.464Z,98351.69
2022-09-01T23:13:54.311Z,98354.38
2022-09-01T23:16:22.889Z,98351.13
2022-09-01T23:18:51.582Z,98354.19
2022-09-01T23:21:21.093Z,98353.59
2022-09-01T23:23:48.413Z,98357.13
2022-09-01T23:26:24.241Z,98353.81
2022-09-01T23:28:56.124Z,98355.06
2022-09-01T23:31:26.328Z,98354.25
2022-09-01T23:33:53.509Z,98359.19
2022-09-01T23:36:25.366Z,98352.56
2022-09-01T23:38:52.787Z,98357.75
2022-09-01T23:41:27.905Z,98363.31
2022-09-01T23:43:55.337Z,98371.59
2022-09-01T23:46:31.542Z,98358.59
2022-09-01T23:48:58.713Z,98360.88
2022-09-01T23:51:27.003Z,98356.94
2022-09-01T23:53:54.409Z,98356.94
2022-09-01T23:56:23.845Z,98351.97
2022-09-01T23:58:51.235Z,98357.13
